sensor_id;sensor_type;location;lat;lon;timestamp;temperature;humidity
80254;DHT22;69563;37.974;23.708;2023-07-31T00:00:30;30.90;33.90
80254;DHT22;69563;37.974;23.708;2023-07-31T00:02:56;30.90;33.90
80254;DHT22;69563;37.974;23.708;2023-07-31T00:05:22;30.90;33.60
80254;DHT22;69563;37.974;23.708;2023-07-31T00:07:47;30.90;33.60
80254;DHT22;69563;37.974;23.708;2023-07-31T00:10:13;30.90;33.50
80254;DHT22;69563;37.974;23.708;2023-07-31T00:12:41;30.90;33.50
80254;DHT22;69563;37.974;23.708;2023-07-31T00:15:08;30.90;33.40
80254;DHT22;69563;37.974;23.708;2023-07-31T00:17:34;30.90;33.20
80254;DHT22;69563;37.974;23.708;2023-07-31T00:20:00;30.90;33.10
80254;DHT22;69563;37.974;23.708;2023-07-31T00:22:25;30.90;33.00
80254;DHT22;69563;37.974;23.708;2023-07-31T00:24:51;30.90;32.80
80254;DHT22;69563;37.974;23.708;2023-07-31T00:27:17;30.90;33.10
80254;DHT22;69563;37.974;23.708;2023-07-31T00:29:42;30.90;33.00
80254;DHT22;69563;37.974;23.708;2023-07-31T00:32:08;30.90;33.00
80254;DHT22;69563;37.974;23.708;2023-07-31T00:34:34;30.90;32.80
80254;DHT22;69563;37.974;23.708;2023-07-31T00:36:59;30.90;33.00
80254;DHT22;69563;37.974;23.708;2023-07-31T00:39:25;30.90;32.70
80254;DHT22;69563;37.974;23.708;2023-07-31T00:41:51;30.90;32.80
80254;DHT22;69563;37.974;23.708;2023-07-31T00:44:16;30.90;33.10
80254;DHT22;69563;37.974;23.708;2023-07-31T00:46:42;30.80;33.00
80254;DHT22;69563;37.974;23.708;2023-07-31T00:49:08;30.80;33.20
80254;DHT22;69563;37.974;23.708;2023-07-31T00:51:35;30.80;33.20
80254;DHT22;69563;37.974;23.708;2023-07-31T00:54:01;30.80;33.20
80254;DHT22;69563;37.974;23.708;2023-07-31T00:56:28;30.80;33.20
80254;DHT22;69563;37.974;23.708;2023-07-31T00:58:55;30.70;33.00
80254;DHT22;69563;37.974;23.708;2023-07-31T01:01:21;30.70;33.10
80254;DHT22;69563;37.974;23.708;2023-07-31T01:03:48;30.70;33.10
80254;DHT22;69563;37.974;23.708;2023-07-31T01:06:24;30.70;33.00
80254;DHT22;69563;37.974;23.708;2023-07-31T01:09:02;30.70;33.10
80254;DHT22;69563;37.974;23.708;2023-07-31T01:11:34;30.70;32.90
80254;DHT22;69563;37.974;23.708;2023-07-31T01:14:03;30.70;32.50
80254;DHT22;69563;37.974;23.708;2023-07-31T01:16:28;30.70;32.70
80254;DHT22;69563;37.974;23.708;2023-07-31T01:18:54;30.70;32.80
80254;DHT22;69563;37.974;23.708;2023-07-31T01:24:41;30.70;32.70
80254;DHT22;69563;37.974;23.708;2023-07-31T01:27:17;30.70;32.60
80254;DHT22;69563;37.974;23.708;2023-07-31T01:29:52;30.60;32.40
80254;DHT22;69563;37.974;23.708;2023-07-31T01:32:22;30.60;32.20
80254;DHT22;69563;37.974;23.708;2023-07-31T01:34:49;30.60;31.90
80254;DHT22;69563;37.974;23.708;2023-07-31T01:37:16;30.60;32.00
80254;DHT22;69563;37.974;23.708;2023-07-31T01:39:42;30.60;32.00
80254;DHT22;69563;37.974;23.708;2023-07-31T01:42:07;30.60;32.00
80254;DHT22;69563;37.974;23.708;2023-07-31T01:44:33;30.60;31.90
80254;DHT22;69563;37.974;23.708;2023-07-31T01:46:59;30.60;31.80
80254;DHT22;69563;37.974;23.708;2023-07-31T01:49:25;30.60;31.80
80254;DHT22;69563;37.974;23.708;2023-07-31T01:51:51;30.50;31.60
80254;DHT22;69563;37.974;23.708;2023-07-31T01:54:17;30.50;31.40
80254;DHT22;69563;37.974;23.708;2023-07-31T01:56:42;30.40;31.40
80254;DHT22;69563;37.974;23.708;2023-07-31T01:59:08;30.50;31.50
80254;DHT22;69563;37.974;23.708;2023-07-31T02:01:34;30.50;31.60
80254;DHT22;69563;37.974;23.708;2023-07-31T02:03:59;30.40;31.50
80254;DHT22;69563;37.974;23.708;2023-07-31T02:06:25;30.40;31.60
80254;DHT22;69563;37.974;23.708;2023-07-31T02:08:51;30.40;31.60
80254;DHT22;69563;37.974;23.708;2023-07-31T02:11:16;30.40;31.60
80254;DHT22;69563;37.974;23.708;2023-07-31T02:13:42;30.50;31.60
80254;DHT22;69563;37.974;23.708;2023-07-31T02:16:08;30.50;31.50
80254;DHT22;69563;37.974;23.708;2023-07-31T02:18:33;30.50;31.40
80254;DHT22;69563;37.974;23.708;2023-07-31T02:20:59;30.50;31.50
80254;DHT22;69563;37.974;23.708;2023-07-31T02:23:25;30.50;31.50
80254;DHT22;69563;37.974;23.708;2023-07-31T02:25:50;30.40;31.50
80254;DHT22;69563;37.974;23.708;2023-07-31T02:28:16;30.50;31.60
80254;DHT22;69563;37.974;23.708;2023-07-31T02:30:44;30.50;31.50
80254;DHT22;69563;37.974;23.708;2023-07-31T02:33:11;30.40;31.40
80254;DHT22;69563;37.974;23.708;2023-07-31T02:35:37;30.50;31.60
80254;DHT22;69563;37.974;23.708;2023-07-31T02:38:02;30.50;31.70
80254;DHT22;69563;37.974;23.708;2023-07-31T02:40:28;30.40;31.80
80254;DHT22;69563;37.974;23.708;2023-07-31T02:42:54;30.40;31.70
80254;DHT22;69563;37.974;23.708;2023-07-31T02:45:19;30.40;31.60
80254;DHT22;69563;37.974;23.708;2023-07-31T02:47:45;30.40;31.60
80254;DHT22;69563;37.974;23.708;2023-07-31T02:50:11;30.40;31.70
80254;DHT22;69563;37.974;23.708;2023-07-31T02:52:36;30.40;31.80
80254;DHT22;69563;37.974;23.708;2023-07-31T02:55:02;30.40;31.90
80254;DHT22;69563;37.974;23.708;2023-07-31T02:57:28;30.40;32.00
80254;DHT22;69563;37.974;23.708;2023-07-31T02:59:53;30.40;32.10
80254;DHT22;69563;37.974;23.708;2023-07-31T03:02:19;30.40;32.20
80254;DHT22;69563;37.974;23.708;2023-07-31T03:04:45;30.40;32.30
80254;DHT22;69563;37.974;23.708;2023-07-31T03:07:10;30.40;32.30
80254;DHT22;69563;37.974;23.708;2023-07-31T03:09:36;30.30;32.40
80254;DHT22;69563;37.974;23.708;2023-07-31T03:12:02;30.40;32.40
80254;DHT22;69563;37.974;23.708;2023-07-31T03:14:28;30.40;32.50
80254;DHT22;69563;37.974;23.708;2023-07-31T03:16:54;30.30;32.40
80254;DHT22;69563;37.974;23.708;2023-07-31T03:19:20;30.40;32.40
80254;DHT22;69563;37.974;23.708;2023-07-31T03:21:45;30.30;32.40
80254;DHT22;69563;37.974;23.708;2023-07-31T03:24:11;30.30;32.40
80254;DHT22;69563;37.974;23.708;2023-07-31T03:26:38;30.30;32.40
80254;DHT22;69563;37.974;23.708;2023-07-31T03:29:07;30.30;32.40
80254;DHT22;69563;37.974;23.708;2023-07-31T03:31:33;30.30;32.50
80254;DHT22;69563;37.974;23.708;2023-07-31T03:33:58;30.30;32.50
80254;DHT22;69563;37.974;23.708;2023-07-31T03:36:24;30.30;32.70
80254;DHT22;69563;37.974;23.708;2023-07-31T03:38:51;30.30;32.80
80254;DHT22;69563;37.974;23.708;2023-07-31T03:41:17;30.30;32.80
80254;DHT22;69563;37.974;23.708;2023-07-31T03:43:43;30.30;32.90
80254;DHT22;69563;37.974;23.708;2023-07-31T03:46:08;30.30;33.00
80254;DHT22;69563;37.974;23.708;2023-07-31T03:48:34;30.30;33.10
80254;DHT22;69563;37.974;23.708;2023-07-31T03:51:00;30.30;33.20
80254;DHT22;69563;37.974;23.708;2023-07-31T03:53:25;30.30;33.30
80254;DHT22;69563;37.974;23.708;2023-07-31T03:55:51;30.30;33.40
80254;DHT22;69563;37.974;23.708;2023-07-31T03:58:17;30.30;33.40
80254;DHT22;69563;37.974;23.708;2023-07-31T04:00:42;30.30;33.40
80254;DHT22;69563;37.974;23.708;2023-07-31T04:03:08;30.40;33.50
80254;DHT22;69563;37.974;23.708;2023-07-31T04:05:38;30.40;33.50
80254;DHT22;69563;37.974;23.708;2023-07-31T04:08:04;30.40;33.50
80254;DHT22;69563;37.974;23.708;2023-07-31T04:10:29;30.50;33.60
80254;DHT22;69563;37.974;23.708;2023-07-31T04:12:56;30.50;33.70
80254;DHT22;69563;37.974;23.708;2023-07-31T04:15:22;30.50;33.70
80254;DHT22;69563;37.974;23.708;2023-07-31T04:17:48;30.60;34.40
80254;DHT22;69563;37.974;23.708;2023-07-31T04:20:13;30.60;34.90
80254;DHT22;69563;37.974;23.708;2023-07-31T04:22:39;30.60;35.50
80254;DHT22;69563;37.974;23.708;2023-07-31T04:25:05;30.70;35.70
80254;DHT22;69563;37.974;23.708;2023-07-31T04:27:31;30.70;36.60
80254;DHT22;69563;37.974;23.708;2023-07-31T04:29:56;30.70;35.40
80254;DHT22;69563;37.974;23.708;2023-07-31T04:32:22;30.70;35.20
80254;DHT22;69563;37.974;23.708;2023-07-31T04:34:48;30.80;35.10
80254;DHT22;69563;37.974;23.708;2023-07-31T04:37:13;30.80;35.00
80254;DHT22;69563;37.974;23.708;2023-07-31T04:39:39;30.80;35.00
80254;DHT22;69563;37.974;23.708;2023-07-31T04:42:05;30.90;34.90
80254;DHT22;69563;37.974;23.708;2023-07-31T04:44:31;31.00;34.90
80254;DHT22;69563;37.974;23.708;2023-07-31T04:46:56;31.00;34.60
80254;DHT22;69563;37.974;23.708;2023-07-31T04:49:22;31.00;34.40
80254;DHT22;69563;37.974;23.708;2023-07-31T04:51:48;31.10;34.20
80254;DHT22;69563;37.974;23.708;2023-07-31T04:54:13;31.10;34.00
80254;DHT22;69563;37.974;23.708;2023-07-31T04:56:40;31.20;34.10
80254;DHT22;69563;37.974;23.708;2023-07-31T04:59:06;31.20;33.80
80254;DHT22;69563;37.974;23.708;2023-07-31T05:01:32;31.20;33.80
80254;DHT22;69563;37.974;23.708;2023-07-31T05:03:58;31.30;33.70
80254;DHT22;69563;37.974;23.708;2023-07-31T05:06:23;31.30;33.60
80254;DHT22;69563;37.974;23.708;2023-07-31T05:08:49;31.40;33.60
80254;DHT22;69563;37.974;23.708;2023-07-31T05:11:15;31.40;33.50
80254;DHT22;69563;37.974;23.708;2023-07-31T05:13:41;31.50;33.50
80254;DHT22;69563;37.974;23.708;2023-07-31T05:16:06;31.50;33.30
80254;DHT22;69563;37.974;23.708;2023-07-31T05:18:32;31.50;33.20
80254;DHT22;69563;37.974;23.708;2023-07-31T05:20:58;31.60;33.30
80254;DHT22;69563;37.974;23.708;2023-07-31T05:23:23;31.60;33.20
80254;DHT22;69563;37.974;23.708;2023-07-31T05:25:49;31.60;33.10
80254;DHT22;69563;37.974;23.708;2023-07-31T05:28:15;31.70;33.10
80254;DHT22;69563;37.974;23.708;2023-07-31T05:30:40;31.70;33.00
80254;DHT22;69563;37.974;23.708;2023-07-31T05:33:06;31.70;32.90
80254;DHT22;69563;37.974;23.708;2023-07-31T05:35:32;31.70;32.90
80254;DHT22;69563;37.974;23.708;2023-07-31T05:37:57;31.70;32.80
80254;DHT22;69563;37.974;23.708;2023-07-31T05:40:23;31.70;32.70
80254;DHT22;69563;37.974;23.708;2023-07-31T05:42:49;31.70;32.70
80254;DHT22;69563;37.974;23.708;2023-07-31T05:45:14;31.80;32.70
80254;DHT22;69563;37.974;23.708;2023-07-31T05:47:40;31.80;32.50
80254;DHT22;69563;37.974;23.708;2023-07-31T05:50:06;31.80;32.50
80254;DHT22;69563;37.974;23.708;2023-07-31T05:52:32;31.80;32.40
80254;DHT22;69563;37.974;23.708;2023-07-31T05:54:57;31.80;32.40
80254;DHT22;69563;37.974;23.708;2023-07-31T05:57:23;31.80;32.30
80254;DHT22;69563;37.974;23.708;2023-07-31T05:59:49;31.80;32.30
80254;DHT22;69563;37.974;23.708;2023-07-31T06:02:14;31.80;32.30
80254;DHT22;69563;37.974;23.708;2023-07-31T06:04:40;31.80;32.20
80254;DHT22;69563;37.974;23.708;2023-07-31T06:07:06;31.80;32.20
80254;DHT22;69563;37.974;23.708;2023-07-31T06:09:32;31.80;32.20
80254;DHT22;69563;37.974;23.708;2023-07-31T06:11:57;31.80;32.00
80254;DHT22;69563;37.974;23.708;2023-07-31T06:14:23;31.80;32.00
80254;DHT22;69563;37.974;23.708;2023-07-31T06:16:49;31.80;31.90
80254;DHT22;69563;37.974;23.708;2023-07-31T06:19:14;31.80;31.80
80254;DHT22;69563;37.974;23.708;2023-07-31T06:21:40;31.80;31.70
80254;DHT22;69563;37.974;23.708;2023-07-31T06:24:07;31.80;31.70
80254;DHT22;69563;37.974;23.708;2023-07-31T06:26:33;31.80;31.60
80254;DHT22;69563;37.974;23.708;2023-07-31T06:28:59;31.80;31.50
80254;DHT22;69563;37.974;23.708;2023-07-31T06:31:26;31.80;31.50
80254;DHT22;69563;37.974;23.708;2023-07-31T06:33:52;31.80;31.40
80254;DHT22;69563;37.974;23.708;2023-07-31T06:36:18;31.80;31.40
80254;DHT22;69563;37.974;23.708;2023-07-31T06:38:44;31.80;31.40
80254;DHT22;69563;37.974;23.708;2023-07-31T06:41:10;31.80;31.40
80254;DHT22;69563;37.974;23.708;2023-07-31T06:43:36;31.80;31.40
80254;DHT22;69563;37.974;23.708;2023-07-31T06:46:06;31.80;31.30
80254;DHT22;69563;37.974;23.708;2023-07-31T06:48:33;31.80;31.30
80254;DHT22;69563;37.974;23.708;2023-07-31T06:50:59;31.80;31.30
80254;DHT22;69563;37.974;23.708;2023-07-31T06:53:24;31.80;31.30
80254;DHT22;69563;37.974;23.708;2023-07-31T06:55:50;31.80;31.30
80254;DHT22;69563;37.974;23.708;2023-07-31T06:58:17;31.80;31.20
80254;DHT22;69563;37.974;23.708;2023-07-31T07:00:43;31.80;31.30
80254;DHT22;69563;37.974;23.708;2023-07-31T07:03:09;31.90;31.50
80254;DHT22;69563;37.974;23.708;2023-07-31T07:05:35;31.90;31.50
80254;DHT22;69563;37.974;23.708;2023-07-31T07:08:00;31.90;31.60
80254;DHT22;69563;37.974;23.708;2023-07-31T07:10:26;32.00;31.50
80254;DHT22;69563;37.974;23.708;2023-07-31T07:12:52;31.90;31.40
80254;DHT22;69563;37.974;23.708;2023-07-31T07:15:18;31.90;31.40
80254;DHT22;69563;37.974;23.708;2023-07-31T07:17:43;32.00;31.40
80254;DHT22;69563;37.974;23.708;2023-07-31T07:20:09;32.00;31.40
80254;DHT22;69563;37.974;23.708;2023-07-31T07:22:35;32.00;31.60
80254;DHT22;69563;37.974;23.708;2023-07-31T07:25:01;32.00;31.40
80254;DHT22;69563;37.974;23.708;2023-07-31T07:27:27;32.00;31.40
80254;DHT22;69563;37.974;23.708;2023-07-31T07:29:53;31.90;31.30
80254;DHT22;69563;37.974;23.708;2023-07-31T07:32:18;32.00;31.40
80254;DHT22;69563;37.974;23.708;2023-07-31T07:34:44;32.00;31.40
80254;DHT22;69563;37.974;23.708;2023-07-31T07:37:11;32.00;31.40
80254;DHT22;69563;37.974;23.708;2023-07-31T07:39:36;32.00;31.30
80254;DHT22;69563;37.974;23.708;2023-07-31T07:42:02;32.00;31.20
80254;DHT22;69563;37.974;23.708;2023-07-31T07:44:28;32.00;31.10
80254;DHT22;69563;37.974;23.708;2023-07-31T07:46:54;32.00;31.30
80254;DHT22;69563;37.974;23.708;2023-07-31T07:49:20;32.00;31.30
80254;DHT22;69563;37.974;23.708;2023-07-31T07:51:48;32.00;31.30
80254;DHT22;69563;37.974;23.708;2023-07-31T07:54:13;32.00;31.10
80254;DHT22;69563;37.974;23.708;2023-07-31T07:56:39;32.00;30.80
80254;DHT22;69563;37.974;23.708;2023-07-31T07:59:05;32.00;31.00
80254;DHT22;69563;37.974;23.708;2023-07-31T08:01:31;32.00;31.00
80254;DHT22;69563;37.974;23.708;2023-07-31T08:03:58;32.00;31.00
80254;DHT22;69563;37.974;23.708;2023-07-31T08:06:24;32.00;31.50
80254;DHT22;69563;37.974;23.708;2023-07-31T08:08:49;32.00;31.20
80254;DHT22;69563;37.974;23.708;2023-07-31T08:11:15;32.00;31.10
80254;DHT22;69563;37.974;23.708;2023-07-31T08:13:41;32.00;31.10
80254;DHT22;69563;37.974;23.708;2023-07-31T08:16:06;31.90;31.00
80254;DHT22;69563;37.974;23.708;2023-07-31T08:18:32;32.00;31.00
80254;DHT22;69563;37.974;23.708;2023-07-31T08:20:58;32.00;31.00
80254;DHT22;69563;37.974;23.708;2023-07-31T08:23:24;32.00;30.90
80254;DHT22;69563;37.974;23.708;2023-07-31T08:25:50;32.00;30.90
80254;DHT22;69563;37.974;23.708;2023-07-31T08:28:16;32.00;30.80
80254;DHT22;69563;37.974;23.708;2023-07-31T08:30:42;32.00;30.80
80254;DHT22;69563;37.974;23.708;2023-07-31T08:33:08;32.10;30.80
80254;DHT22;69563;37.974;23.708;2023-07-31T08:35:33;32.00;30.60
80254;DHT22;69563;37.974;23.708;2023-07-31T08:37:59;32.00;30.60
80254;DHT22;69563;37.974;23.708;2023-07-31T08:40:25;32.00;30.60
80254;DHT22;69563;37.974;23.708;2023-07-31T08:42:53;32.10;30.70
80254;DHT22;69563;37.974;23.708;2023-07-31T08:45:20;32.10;30.60
80254;DHT22;69563;37.974;23.708;2023-07-31T08:47:47;32.10;30.50
80254;DHT22;69563;37.974;23.708;2023-07-31T08:50:16;32.10;30.50
80254;DHT22;69563;37.974;23.708;2023-07-31T08:52:42;32.10;30.50
80254;DHT22;69563;37.974;23.708;2023-07-31T08:55:08;32.00;30.50
80254;DHT22;69563;37.974;23.708;2023-07-31T08:57:36;32.10;30.60
80254;DHT22;69563;37.974;23.708;2023-07-31T09:00:07;32.10;30.60
80254;DHT22;69563;37.974;23.708;2023-07-31T09:03:06;32.00;30.50
80254;DHT22;69563;37.974;23.708;2023-07-31T09:05:35;32.10;30.50
80254;DHT22;69563;37.974;23.708;2023-07-31T09:08:02;32.10;30.80
80254;DHT22;69563;37.974;23.708;2023-07-31T09:10:29;32.10;30.80
80254;DHT22;69563;37.974;23.708;2023-07-31T09:12:56;32.00;30.80
80254;DHT22;69563;37.974;23.708;2023-07-31T09:15:22;32.10;30.90
80254;DHT22;69563;37.974;23.708;2023-07-31T09:17:59;32.10;30.90
80254;DHT22;69563;37.974;23.708;2023-07-31T09:20:25;32.10;30.90
80254;DHT22;69563;37.974;23.708;2023-07-31T09:22:51;32.10;30.90
80254;DHT22;69563;37.974;23.708;2023-07-31T09:25:22;32.10;30.70
80254;DHT22;69563;37.974;23.708;2023-07-31T09:28:03;32.20;30.80
80254;DHT22;69563;37.974;23.708;2023-07-31T09:30:28;32.20;30.60
80254;DHT22;69563;37.974;23.708;2023-07-31T09:33:05;32.00;30.80
80254;DHT22;69563;37.974;23.708;2023-07-31T09:35:34;31.90;31.10
80254;DHT22;69563;37.974;23.708;2023-07-31T09:40:36;31.70;32.40
80254;DHT22;69563;37.974;23.708;2023-07-31T09:43:07;31.70;33.20
80254;DHT22;69563;37.974;23.708;2023-07-31T09:45:43;31.70;34.00
80254;DHT22;69563;37.974;23.708;2023-07-31T09:48:17;31.60;34.70
80254;DHT22;69563;37.974;23.708;2023-07-31T09:50:45;31.60;35.10
80254;DHT22;69563;37.974;23.708;2023-07-31T09:53:11;31.60;35.50
80254;DHT22;69563;37.974;23.708;2023-07-31T09:55:37;31.50;35.60
80254;DHT22;69563;37.974;23.708;2023-07-31T09:58:08;31.60;35.90
80254;DHT22;69563;37.974;23.708;2023-07-31T10:00:34;31.60;36.20
80254;DHT22;69563;37.974;23.708;2023-07-31T10:03:02;31.50;36.20
80254;DHT22;69563;37.974;23.708;2023-07-31T10:05:42;31.50;36.40
80254;DHT22;69563;37.974;23.708;2023-07-31T10:08:09;31.50;36.40
80254;DHT22;69563;37.974;23.708;2023-07-31T10:10:37;31.40;36.50
80254;DHT22;69563;37.974;23.708;2023-07-31T10:13:06;31.40;36.70
80254;DHT22;69563;37.974;23.708;2023-07-31T10:15:33;31.40;36.90
80254;DHT22;69563;37.974;23.708;2023-07-31T10:18:00;31.30;36.90
80254;DHT22;69563;37.974;23.708;2023-07-31T10:20:26;31.30;37.00
80254;DHT22;69563;37.974;23.708;2023-07-31T10:22:54;31.30;37.30
80254;DHT22;69563;37.974;23.708;2023-07-31T10:25:22;31.30;37.40
80254;DHT22;69563;37.974;23.708;2023-07-31T10:27:48;31.30;37.40
80254;DHT22;69563;37.974;23.708;2023-07-31T10:30:20;31.20;37.40
80254;DHT22;69563;37.974;23.708;2023-07-31T10:32:47;31.20;37.50
80254;DHT22;69563;37.974;23.708;2023-07-31T10:35:16;31.20;37.50
80254;DHT22;69563;37.974;23.708;2023-07-31T10:37:43;31.20;37.60
80254;DHT22;69563;37.974;23.708;2023-07-31T10:42:51;31.20;37.60
80254;DHT22;69563;37.974;23.708;2023-07-31T10:45:35;31.20;37.20
80254;DHT22;69563;37.974;23.708;2023-07-31T10:48:06;31.10;36.80
80254;DHT22;69563;37.974;23.708;2023-07-31T10:50:37;31.00;37.00
80254;DHT22;69563;37.974;23.708;2023-07-31T10:53:03;31.00;36.90
80254;DHT22;69563;37.974;23.708;2023-07-31T10:55:35;31.00;36.80
80254;DHT22;69563;37.974;23.708;2023-07-31T10:58:14;31.00;36.60
80254;DHT22;69563;37.974;23.708;2023-07-31T11:00:44;30.90;36.50
80254;DHT22;69563;37.974;23.708;2023-07-31T11:08:16;30.90;36.50
80254;DHT22;69563;37.974;23.708;2023-07-31T11:10:43;30.90;36.50
80254;DHT22;69563;37.974;23.708;2023-07-31T11:13:10;30.80;36.60
80254;DHT22;69563;37.974;23.708;2023-07-31T11:15:35;30.80;36.80
80254;DHT22;69563;37.974;23.708;2023-07-31T11:18:02;30.80;37.00
80254;DHT22;69563;37.974;23.708;2023-07-31T11:20:34;30.80;37.00
80254;DHT22;69563;37.974;23.708;2023-07-31T11:23:05;30.70;37.00
80254;DHT22;69563;37.974;23.708;2023-07-31T11:25:31;30.70;37.10
80254;DHT22;69563;37.974;23.708;2023-07-31T11:28:05;30.60;37.00
80254;DHT22;69563;37.974;23.708;2023-07-31T11:30:31;30.60;37.20
80254;DHT22;69563;37.974;23.708;2023-07-31T11:32:57;30.70;37.30
80254;DHT22;69563;37.974;23.708;2023-07-31T11:35:23;30.70;37.40
80254;DHT22;69563;37.974;23.708;2023-07-31T11:37:48;30.70;37.50
80254;DHT22;69563;37.974;23.708;2023-07-31T11:40:15;30.70;37.50
80254;DHT22;69563;37.974;23.708;2023-07-31T11:42:41;30.70;37.40
80254;DHT22;69563;37.974;23.708;2023-07-31T11:45:10;30.70;37.60
80254;DHT22;69563;37.974;23.708;2023-07-31T11:47:37;30.70;37.70
80254;DHT22;69563;37.974;23.708;2023-07-31T11:50:11;30.70;37.80
80254;DHT22;69563;37.974;23.708;2023-07-31T11:52:42;30.70;37.90
80254;DHT22;69563;37.974;23.708;2023-07-31T11:55:09;30.70;38.10
80254;DHT22;69563;37.974;23.708;2023-07-31T11:57:38;30.70;38.20
80254;DHT22;69563;37.974;23.708;2023-07-31T12:00:06;30.70;38.10
80254;DHT22;69563;37.974;23.708;2023-07-31T12:02:34;30.70;38.10
80254;DHT22;69563;37.974;23.708;2023-07-31T12:04:59;30.70;38.00
80254;DHT22;69563;37.974;23.708;2023-07-31T12:07:25;30.70;37.80
80254;DHT22;69563;37.974;23.708;2023-07-31T12:09:55;30.70;37.90
80254;DHT22;69563;37.974;23.708;2023-07-31T12:12:22;30.70;37.60
80254;DHT22;69563;37.974;23.708;2023-07-31T12:14:49;30.70;37.50
80254;DHT22;69563;37.974;23.708;2023-07-31T12:17:19;30.70;37.60
80254;DHT22;69563;37.974;23.708;2023-07-31T12:19:48;30.80;37.40
80254;DHT22;69563;37.974;23.708;2023-07-31T12:22:14;30.80;37.40
80254;DHT22;69563;37.974;23.708;2023-07-31T12:24:42;30.80;37.40
80254;DHT22;69563;37.974;23.708;2023-07-31T12:27:15;30.80;37.20
80254;DHT22;69563;37.974;23.708;2023-07-31T12:29:43;30.90;37.20
80254;DHT22;69563;37.974;23.708;2023-07-31T12:32:23;30.90;37.20
80254;DHT22;69563;37.974;23.708;2023-07-31T12:34:49;30.90;37.20
80254;DHT22;69563;37.974;23.708;2023-07-31T12:37:15;30.90;37.30
80254;DHT22;69563;37.974;23.708;2023-07-31T12:39:41;30.90;37.30
80254;DHT22;69563;37.974;23.708;2023-07-31T12:42:07;31.00;37.30
80254;DHT22;69563;37.974;23.708;2023-07-31T12:44:32;31.00;37.10
80254;DHT22;69563;37.974;23.708;2023-07-31T12:46:58;31.00;37.20
80254;DHT22;69563;37.974;23.708;2023-07-31T12:49:24;31.10;38.10
80254;DHT22;69563;37.974;23.708;2023-07-31T12:51:49;31.10;37.20
80254;DHT22;69563;37.974;23.708;2023-07-31T12:54:15;31.10;37.20
80254;DHT22;69563;37.974;23.708;2023-07-31T12:56:40;31.20;37.40
80254;DHT22;69563;37.974;23.708;2023-07-31T12:59:06;31.20;37.50
80254;DHT22;69563;37.974;23.708;2023-07-31T13:01:32;31.30;37.60
80254;DHT22;69563;37.974;23.708;2023-07-31T13:03:58;31.30;37.60
80254;DHT22;69563;37.974;23.708;2023-07-31T13:06:25;31.30;37.60
80254;DHT22;69563;37.974;23.708;2023-07-31T13:08:51;31.30;37.70
80254;DHT22;69563;37.974;23.708;2023-07-31T13:11:17;31.40;37.80
80254;DHT22;69563;37.974;23.708;2023-07-31T13:13:43;31.40;37.90
80254;DHT22;69563;37.974;23.708;2023-07-31T13:16:08;31.50;38.00
80254;DHT22;69563;37.974;23.708;2023-07-31T13:18:34;31.50;38.00
80254;DHT22;69563;37.974;23.708;2023-07-31T13:21:00;31.50;38.00
80254;DHT22;69563;37.974;23.708;2023-07-31T13:23:25;31.50;38.20
80254;DHT22;69563;37.974;23.708;2023-07-31T13:25:51;31.50;38.30
80254;DHT22;69563;37.974;23.708;2023-07-31T13:28:17;31.50;38.40
80254;DHT22;69563;37.974;23.708;2023-07-31T13:30:42;31.50;38.40
80254;DHT22;69563;37.974;23.708;2023-07-31T13:33:08;31.50;38.40
80254;DHT22;69563;37.974;23.708;2023-07-31T13:35:34;31.50;38.40
80254;DHT22;69563;37.974;23.708;2023-07-31T13:38:00;31.50;38.40
80254;DHT22;69563;37.974;23.708;2023-07-31T13:40:25;31.50;38.40
80254;DHT22;69563;37.974;23.708;2023-07-31T13:42:52;31.60;38.60
80254;DHT22;69563;37.974;23.708;2023-07-31T13:45:18;31.50;38.60
80254;DHT22;69563;37.974;23.708;2023-07-31T13:47:44;31.50;38.80
80254;DHT22;69563;37.974;23.708;2023-07-31T13:50:10;31.60;38.90
80254;DHT22;69563;37.974;23.708;2023-07-31T13:52:36;31.50;39.00
80254;DHT22;69563;37.974;23.708;2023-07-31T13:55:01;31.60;39.00
80254;DHT22;69563;37.974;23.708;2023-07-31T13:57:27;31.60;39.10
80254;DHT22;69563;37.974;23.708;2023-07-31T13:59:53;31.60;39.30
80254;DHT22;69563;37.974;23.708;2023-07-31T14:02:19;31.50;39.30
80254;DHT22;69563;37.974;23.708;2023-07-31T14:04:45;31.50;39.40
80254;DHT22;69563;37.974;23.708;2023-07-31T14:07:10;31.50;39.50
80254;DHT22;69563;37.974;23.708;2023-07-31T14:09:36;31.60;39.70
80254;DHT22;69563;37.974;23.708;2023-07-31T14:12:02;31.60;39.80
80254;DHT22;69563;37.974;23.708;2023-07-31T14:14:28;31.60;39.90
80254;DHT22;69563;37.974;23.708;2023-07-31T14:16:53;31.60;40.00
80254;DHT22;69563;37.974;23.708;2023-07-31T14:19:19;31.60;40.10
80254;DHT22;69563;37.974;23.708;2023-07-31T14:21:45;31.60;40.10
80254;DHT22;69563;37.974;23.708;2023-07-31T14:24:11;31.60;40.00
80254;DHT22;69563;37.974;23.708;2023-07-31T14:26:37;31.60;40.00
80254;DHT22;69563;37.974;23.708;2023-07-31T14:29:02;31.60;39.90
80254;DHT22;69563;37.974;23.708;2023-07-31T14:31:28;31.60;39.80
80254;DHT22;69563;37.974;23.708;2023-07-31T14:33:54;31.60;39.90
80254;DHT22;69563;37.974;23.708;2023-07-31T14:36:19;31.60;40.00
80254;DHT22;69563;37.974;23.708;2023-07-31T14:38:45;31.60;39.80
80254;DHT22;69563;37.974;23.708;2023-07-31T14:41:11;31.60;39.60
80254;DHT22;69563;37.974;23.708;2023-07-31T14:43:36;31.70;39.60
80254;DHT22;69563;37.974;23.708;2023-07-31T14:46:02;31.70;39.50
80254;DHT22;69563;37.974;23.708;2023-07-31T14:48:28;31.60;39.50
80254;DHT22;69563;37.974;23.708;2023-07-31T14:50:54;31.60;39.60
80254;DHT22;69563;37.974;23.708;2023-07-31T14:53:21;31.60;39.70
80254;DHT22;69563;37.974;23.708;2023-07-31T14:55:47;31.60;39.70
80254;DHT22;69563;37.974;23.708;2023-07-31T14:58:12;31.60;39.70
80254;DHT22;69563;37.974;23.708;2023-07-31T15:00:40;31.60;39.70
80254;DHT22;69563;37.974;23.708;2023-07-31T15:03:05;31.60;39.60
80254;DHT22;69563;37.974;23.708;2023-07-31T15:05:31;31.60;39.50
80254;DHT22;69563;37.974;23.708;2023-07-31T15:07:57;31.60;39.50
80254;DHT22;69563;37.974;23.708;2023-07-31T15:10:22;31.60;39.40
80254;DHT22;69563;37.974;23.708;2023-07-31T15:12:48;31.60;39.40
80254;DHT22;69563;37.974;23.708;2023-07-31T15:15:15;31.60;39.40
80254;DHT22;69563;37.974;23.708;2023-07-31T15:17:41;31.60;39.40
80254;DHT22;69563;37.974;23.708;2023-07-31T15:20:09;31.60;39.40
80254;DHT22;69563;37.974;23.708;2023-07-31T15:22:35;31.50;39.30
80254;DHT22;69563;37.974;23.708;2023-07-31T15:25:00;31.50;39.30